createdAt,value
2022-11-08T00:00:13.679Z,13.50
2022-11-08T00:02:42.119Z,13.40
2022-11-08T00:05:28.290Z,13.50
2022-11-08T00:08:16.009Z,13.50
2022-11-08T00:11:01.906Z,13.50
2022-11-08T00:13:47.343Z,13.50
2022-11-08T00:16:15.476Z,13.50
2022-11-08T00:18:43.595Z,13.50
2022-11-08T00:21:11.842Z,13.50
2022-11-08T00:23:41.635Z,13.50
2022-11-08T00:26:10.049Z,13.50
2022-11-08T00:28:38.151Z,13.50
2022-11-08T00:31:07.029Z,13.50
2022-11-08T00:33:35.712Z,13.50
2022-11-08T00:36:04.790Z,13.50
2022-11-08T00:38:33.067Z,13.40
2022-11-08T00:41:03.030Z,13.40
2022-11-08T00:43:31.330Z,13.40
2022-11-08T00:45:59.542Z,13.40
2022-11-08T00:48:28.076Z,13.50
2022-11-08T00:50:56.170Z,13.50
2022-11-08T00:53:24.295Z,13.50
2022-11-08T00:56:00.680Z,13.50
2022-11-08T00:58:30.416Z,13.50
2022-11-08T01:00:59.025Z,13.50
2022-11-08T01:03:27.926Z,13.50
2022-11-08T01:05:56.505Z,13.50
2022-11-08T01:08:25.200Z,13.50
2022-11-08T01:10:54.079Z,13.50
2022-11-08T01:13:22.722Z,13.50
2022-11-08T01:15:52.217Z,13.50
2022-11-08T01:18:21.705Z,13.50
2022-11-08T01:20:50.793Z,13.50
2022-11-08T01:23:20.512Z,13.40
2022-11-08T01:25:49.970Z,13.40
2022-11-08T01:28:18.667Z,13.40
2022-11-08T01:30:47.569Z,13.50
2022-11-08T01:33:17.157Z,13.50
2022-11-08T01:35:46.958Z,13.40
2022-11-08T01:38:15.566Z,13.40
2022-11-08T01:40:46.572Z,13.30
2022-11-08T01:43:34.484Z,13.30
2022-11-08T01:46:33.986Z,13.30
2022-11-08T01:49:23.039Z,13.30
2022-11-08T01:51:57.014Z,13.30
2022-11-08T01:54:32.521Z,13.30
2022-11-08T01:57:05.224Z,13.20
2022-11-08T01:59:37.433Z,13.30
2022-11-08T02:02:06.232Z,13.20
2022-11-08T02:04:35.954Z,13.20
2022-11-08T02:07:05.839Z,13.20
2022-11-08T02:09:37.303Z,13.10
2022-11-08T02:12:07.703Z,13.10
2022-11-08T02:14:37.679Z,13.00
2022-11-08T02:17:06.981Z,13.00
2022-11-08T02:19:41.301Z,12.90
2022-11-08T02:22:19.411Z,12.80
2022-11-08T02:24:49.613Z,12.70
2022-11-08T02:27:17.927Z,12.70
2022-11-08T02:29:47.957Z,12.60
2022-11-08T02:32:16.302Z,12.50
2022-11-08T02:34:47.193Z,12.50
2022-11-08T02:37:17.044Z,12.40
2022-11-08T02:39:46.618Z,12.40
2022-11-08T02:42:18.640Z,12.30
2022-11-08T02:44:47.468Z,12.30
2022-11-08T02:47:16.779Z,12.20
2022-11-08T02:49:45.061Z,12.20
2022-11-08T02:52:13.164Z,12.10
2022-11-08T02:54:41.262Z,12.10
2022-11-08T02:57:09.820Z,12.10
2022-11-08T02:59:39.475Z,12.10
2022-11-08T03:02:08.003Z,12.10
2022-11-08T03:04:36.319Z,12.10
2022-11-08T03:07:04.427Z,12.10
2022-11-08T03:09:32.990Z,12.00
2022-11-08T03:12:01.046Z,12.00
2022-11-08T03:14:29.245Z,12.00
2022-11-08T03:16:58.758Z,12.00
2022-11-08T03:19:26.867Z,12.00
2022-11-08T03:21:55.086Z,11.90
2022-11-08T03:24:23.245Z,11.90
2022-11-08T03:26:53.284Z,11.90
2022-11-08T03:29:21.358Z,11.90
2022-11-08T03:31:49.445Z,11.90
2022-11-08T03:34:19.052Z,11.90
2022-11-08T03:36:47.120Z,11.90
2022-11-08T03:39:15.308Z,11.80
2022-11-08T03:41:43.465Z,11.80
2022-11-08T03:44:12.033Z,11.80
2022-11-08T03:46:40.163Z,11.80
2022-11-08T03:49:08.443Z,11.80
2022-11-08T03:51:37.836Z,11.80
2022-11-08T03:54:06.528Z,11.70
2022-11-08T03:56:34.697Z,11.70
2022-11-08T03:59:02.830Z,11.70
2022-11-08T04:01:31.620Z,11.70
2022-11-08T04:04:00.066Z,11.70
2022-11-08T04:06:28.345Z,11.60
2022-11-08T04:08:57.963Z,11.60
2022-11-08T04:11:43.835Z,11.60
2022-11-08T04:14:29.782Z,11.60
2022-11-08T04:17:04.832Z,11.60
2022-11-08T04:19:50.635Z,11.60
2022-11-08T04:22:18.812Z,11.70
2022-11-08T04:24:53.793Z,11.80
2022-11-08T04:27:21.916Z,11.70
2022-11-08T04:29:50.127Z,11.70
2022-11-08T04:32:18.218Z,11.70
2022-11-08T04:34:46.291Z,11.80
2022-11-08T04:37:14.775Z,11.90
2022-11-08T04:39:42.897Z,11.90
2022-11-08T04:42:12.456Z,11.90
2022-11-08T04:44:40.635Z,11.90
2022-11-08T04:47:10.092Z,12.00
2022-11-08T04:49:38.788Z,12.00
2022-11-08T04:52:07.023Z,12.00
2022-11-08T04:54:35.921Z,12.10
2022-11-08T04:57:04.205Z,12.10
2022-11-08T04:59:33.753Z,12.20
2022-11-08T05:02:02.407Z,12.20
2022-11-08T05:04:30.796Z,12.30
2022-11-08T05:06:59.197Z,12.30
2022-11-08T05:09:27.462Z,12.40
2022-11-08T05:11:56.481Z,12.40
2022-11-08T05:14:24.675Z,12.40
2022-11-08T05:16:54.849Z,12.40
2022-11-08T05:19:37.333Z,12.50
2022-11-08T05:22:22.930Z,12.50
2022-11-08T05:24:51.081Z,12.50
2022-11-08T05:27:19.670Z,12.50
2022-11-08T05:29:47.944Z,12.60
2022-11-08T05:32:17.661Z,12.60
2022-11-08T05:34:45.802Z,12.70
2022-11-08T05:37:13.996Z,12.70
2022-11-08T05:39:42.108Z,12.80
2022-11-08T05:42:10.194Z,12.70
2022-11-08T05:44:39.131Z,12.70
2022-11-08T05:47:07.271Z,12.70
2022-11-08T05:49:37.095Z,12.70
2022-11-08T05:52:06.030Z,12.70
2022-11-08T05:54:35.532Z,12.70
2022-11-08T05:57:03.794Z,12.70
2022-11-08T05:59:31.934Z,12.70
2022-11-08T06:02:01.150Z,12.70
2022-11-08T06:04:29.627Z,12.80
2022-11-08T06:07:01.069Z,12.80
2022-11-08T06:09:30.659Z,12.70
2022-11-08T06:11:58.966Z,12.80
2022-11-08T06:14:27.156Z,12.80
2022-11-08T06:16:55.281Z,12.80
2022-11-08T06:19:25.358Z,12.80
2022-11-08T06:21:54.304Z,12.80
2022-11-08T06:24:23.959Z,12.80
2022-11-08T06:26:52.073Z,12.70
2022-11-08T06:29:20.765Z,12.70
2022-11-08T06:31:49.031Z,12.70
2022-11-08T06:34:17.348Z,12.70
2022-11-08T06:36:47.992Z,12.70
2022-11-08T06:39:16.215Z,12.70
2022-11-08T06:41:45.755Z,12.70
2022-11-08T06:44:13.933Z,12.70
2022-11-08T06:46:42.417Z,12.70
2022-11-08T06:49:11.154Z,12.70
2022-11-08T06:51:39.450Z,12.70
2022-11-08T06:54:08.763Z,12.80
2022-11-08T06:56:37.547Z,12.80
2022-11-08T06:59:07.379Z,12.80
2022-11-08T07:01:36.512Z,12.80
2022-11-08T07:04:05.437Z,12.80
2022-11-08T07:06:33.780Z,12.90
2022-11-08T07:09:01.983Z,12.90
2022-11-08T07:11:30.320Z,12.90
2022-11-08T07:13:58.871Z,13.00
2022-11-08T07:16:29.384Z,13.00
2022-11-08T07:18:57.630Z,13.00
2022-11-08T07:21:25.977Z,13.00
2022-11-08T07:23:54.233Z,13.10
2022-11-08T07:26:22.805Z,13.10
2022-11-08T07:28:50.954Z,13.20
2022-11-08T07:31:19.455Z,13.20
2022-11-08T07:33:50.645Z,13.20
2022-11-08T07:36:19.296Z,13.20
2022-11-08T07:38:47.861Z,13.30
2022-11-08T07:41:18.518Z,13.40
2022-11-08T07:43:48.730Z,13.40
2022-11-08T07:46:16.886Z,13.50
2022-11-08T07:48:45.186Z,13.40
2022-11-08T07:51:14.784Z,13.40
2022-11-08T07:53:45.111Z,13.40
2022-11-08T07:56:13.287Z,13.40
2022-11-08T07:58:41.496Z,13.40
2022-11-08T08:01:11.003Z,13.50
2022-11-08T08:03:39.264Z,13.40
2022-11-08T08:06:16.093Z,13.40
2022-11-08T08:08:54.348Z,13.40
2022-11-08T08:11:22.987Z,13.50
2022-11-08T08:13:51.175Z,13.50
2022-11-08T08:16:19.419Z,13.60
2022-11-08T08:18:55.053Z,13.60
2022-11-08T08:21:25.861Z,13.70
2022-11-08T08:23:55.528Z,13.70
2022-11-08T08:26:24.308Z,13.70
2022-11-08T08:28:52.899Z,13.70
2022-11-08T08:31:21.589Z,13.70
2022-11-08T08:33:49.782Z,13.70
2022-11-08T08:36:19.470Z,13.70
2022-11-08T08:38:47.900Z,13.70
2022-11-08T08:41:17.421Z,13.70
2022-11-08T08:43:48.236Z,13.80
2022-11-08T08:46:16.470Z,13.70
2022-11-08T08:48:44.761Z,13.80
2022-11-08T08:51:13.490Z,13.80
2022-11-08T08:53:41.815Z,13.80
2022-11-08T08:56:11.715Z,13.80
2022-11-08T08:58:43.960Z,13.90
2022-11-08T09:04:01.632Z,14.00
2022-11-08T09:06:29.838Z,14.10
2022-11-08T09:08:58.094Z,14.10
2022-11-08T09:11:26.748Z,14.20
2022-11-08T09:13:56.240Z,14.30
2022-11-08T09:16:24.382Z,14.50
2022-11-08T09:18:58.187Z,14.80
2022-11-08T09:21:26.316Z,15.20
2022-11-08T09:23:56.096Z,15.50
2022-11-08T09:26:24.690Z,15.90
2022-11-08T09:28:52.965Z,16.30
2022-11-08T09:31:23.354Z,16.40
2022-11-08T09:33:52.554Z,16.50
2022-11-08T09:36:20.803Z,16.60
2022-11-08T09:38:48.940Z,16.60
2022-11-08T09:41:59.185Z,16.40
2022-11-08T09:44:46.441Z,16.20
2022-11-08T09:47:26.526Z,16.20
2022-11-08T09:50:04.416Z,16.20
2022-11-08T09:52:34.922Z,16.10
2022-11-08T09:55:16.127Z,16.20
2022-11-08T09:57:55.514Z,16.30
2022-11-08T10:00:23.806Z,16.40
2022-11-08T10:02:54.444Z,16.70
2022-11-08T10:05:23.358Z,17.00
2022-11-08T10:07:58.871Z,17.30
2022-11-08T10:10:55.424Z,17.50
2022-11-08T10:13:32.345Z,17.60
2022-11-08T10:16:16.456Z,17.80
2022-11-08T10:19:04.310Z,18.00
2022-11-08T10:21:58.883Z,18.00
2022-11-08T10:24:36.342Z,18.10
2022-11-08T10:27:06.842Z,18.30
2022-11-08T10:29:38.578Z,18.70
2022-11-08T10:32:17.918Z,19.00
2022-11-08T10:34:55.746Z,19.10
2022-11-08T10:37:26.344Z,19.20
2022-11-08T10:39:59.158Z,19.30
2022-11-08T10:42:39.442Z,19.30
2022-11-08T10:45:09.445Z,19.20
2022-11-08T10:47:38.908Z,18.90
2022-11-08T10:50:15.583Z,18.60
2022-11-08T10:52:47.919Z,18.50
2022-11-08T10:55:27.902Z,18.30
2022-11-08T10:57:56.314Z,18.10
2022-11-08T11:00:32.887Z,18.00
2022-11-08T11:03:02.877Z,17.90
2022-11-08T11:05:35.388Z,17.80
2022-11-08T11:08:17.372Z,17.70
2022-11-08T11:10:46.903Z,17.60
2022-11-08T11:13:21.517Z,17.70
2022-11-08T11:15:52.232Z,17.50
2022-11-08T11:18:32.284Z,17.70
2022-11-08T11:21:08.411Z,17.70
2022-11-08T11:23:40.055Z,17.60
2022-11-08T11:26:12.135Z,17.70
2022-11-08T11:29:00.409Z,17.60
2022-11-08T11:31:28.521Z,17.60
2022-11-08T11:33:57.443Z,17.70
2022-11-08T11:36:31.276Z,17.80
2022-11-08T11:39:04.505Z,17.70
2022-11-08T11:41:45.340Z,17.70
2022-11-08T11:44:21.729Z,17.60
2022-11-08T11:46:55.006Z,17.60
2022-11-08T11:49:23.468Z,17.50
2022-11-08T11:51:55.227Z,17.60
2022-11-08T11:54:28.619Z,17.60
2022-11-08T11:57:01.075Z,17.70
2022-11-08T11:59:56.475Z,17.70
2022-11-08T12:02:59.006Z,17.60
2022-11-08T12:05:36.089Z,17.60
2022-11-08T12:08:22.826Z,17.50
2022-11-08T12:11:05.838Z,17.50
2022-11-08T12:13:54.460Z,17.50
2022-11-08T12:16:28.670Z,17.40
2022-11-08T12:19:17.223Z,17.50
2022-11-08T12:21:55.028Z,17.40
2022-11-08T12:24:34.704Z,17.40
2022-11-08T12:27:16.928Z,17.30
2022-11-08T12:29:52.346Z,17.20
2022-11-08T12:33:06.694Z,17.10
2022-11-08T12:35:52.036Z,17.20
2022-11-08T12:38:30.431Z,17.10
2022-11-08T12:41:12.184Z,17.10
2022-11-08T12:44:01.773Z,17.10
2022-11-08T12:46:33.542Z,17.10
2022-11-08T12:49:20.155Z,17.20
2022-11-08T12:52:06.705Z,17.30
2022-11-08T12:54:39.078Z,17.40
2022-11-08T12:57:14.540Z,17.40
2022-11-08T12:59:46.323Z,17.30
2022-11-08T13:02:21.622Z,17.20
2022-11-08T13:05:08.458Z,17.10
2022-11-08T13:07:53.155Z,17.10
2022-11-08T13:10:32.284Z,17.10
2022-11-08T13:13:13.261Z,17.20
2022-11-08T13:16:09.961Z,17.30
2022-11-08T13:18:46.127Z,17.30
2022-11-08T13:21:43.180Z,17.20
2022-11-08T13:24:45.453Z,17.10
2022-11-08T13:27:33.868Z,17.10
2022-11-08T13:30:42.721Z,17.00
2022-11-08T13:33:22.829Z,17.00
2022-11-08T13:36:01.358Z,17.00
2022-11-08T13:38:44.046Z,17.10
2022-11-08T13:41:19.598Z,17.20
2022-11-08T13:43:49.225Z,17.20
2022-11-08T13:46:56.529Z,17.20
2022-11-08T13:49:26.080Z,17.20
2022-11-08T13:52:30.305Z,17.10
2022-11-08T13:54:58.510Z,17.00
2022-11-08T13:58:02.798Z,16.90
2022-11-08T14:00:43.556Z,16.80
2022-11-08T14:03:45.225Z,16.80
2022-11-08T14:06:21.786Z,16.80
2022-11-08T14:08:59.714Z,16.80
2022-11-08T14:11:48.709Z,16.80
2022-11-08T14:14:50.100Z,16.70
2022-11-08T14:17:35.279Z,16.80
2022-11-08T14:20:28.868Z,16.70
2022-11-08T14:22:59.550Z,16.70
2022-11-08T14:25:32.213Z,16.70
2022-11-08T14:28:00.428Z,16.70
2022-11-08T14:30:29.232Z,16.70
2022-11-08T14:33:18.416Z,16.70
2022-11-08T14:35:56.503Z,16.70
2022-11-08T14:38:31.941Z,16.70
2022-11-08T14:41:01.824Z,16.70
2022-11-08T14:43:31.004Z,16.60
2022-11-08T14:46:01.070Z,16.60
2022-11-08T14:48:31.877Z,16.60
2022-11-08T14:51:01.505Z,16.60
2022-11-08T14:53:32.671Z,16.60
2022-11-08T14:56:19.214Z,16.60
2022-11-08T14:58:50.240Z,16.60
2022-11-08T15:01:21.925Z,16.60
2022-11-08T15:03:55.764Z,16.60
2022-11-08T15:06:32.078Z,16.60
2022-11-08T15:09:04.031Z,16.60
2022-11-08T15:11:35.085Z,16.60
2022-11-08T15:14:06.178Z,16.60
2022-11-08T15:16:43.000Z,16.60
2022-11-08T15:19:43.103Z,16.60
2022-11-08T15:22:26.948Z,16.60
2022-11-08T15:25:04.200Z,16.60
2022-11-08T15:27:33.053Z,16.60
2022-11-08T15:30:04.162Z,16.60
2022-11-08T15:32:38.087Z,16.60
2022-11-08T15:35:08.083Z,16.60
2022-11-08T15:37:41.278Z,16.60
2022-11-08T15:40:21.196Z,16.50
2022-11-08T15:42:52.087Z,16.50
2022-11-08T15:45:26.153Z,16.40
2022-11-08T15:47:55.816Z,16.40
2022-11-08T15:50:26.657Z,16.30
2022-11-08T15:52:57.619Z,16.30
2022-11-08T15:55:44.382Z,16.40
2022-11-08T15:58:28.017Z,16.40
2022-11-08T16:00:58.140Z,16.40
2022-11-08T16:03:26.428Z,16.40
2022-11-08T16:05:54.670Z,16.30
2022-11-08T16:08:24.283Z,16.30
2022-11-08T16:10:58.529Z,16.30
2022-11-08T16:13:30.222Z,16.30
2022-11-08T16:16:00.751Z,16.20
2022-11-08T16:18:32.361Z,16.30
2022-11-08T16:21:00.492Z,16.20
2022-11-08T16:23:29.740Z,16.30
2022-11-08T16:26:01.050Z,16.30
2022-11-08T16:28:33.871Z,16.20
2022-11-08T16:31:02.922Z,16.20
2022-11-08T16:33:34.331Z,16.30
2022-11-08T16:36:04.846Z,16.20
2022-11-08T16:38:35.491Z,16.20
2022-11-08T16:41:06.791Z,16.20
2022-11-08T16:43:37.668Z,16.30
2022-11-08T16:46:07.843Z,16.20
2022-11-08T16:48:38.324Z,16.20
2022-11-08T16:51:08.835Z,16.30
2022-11-08T16:53:38.391Z,16.30
2022-11-08T16:56:08.149Z,16.30
2022-11-08T16:58:37.607Z,16.30
2022-11-08T17:01:10.376Z,16.30
2022-11-08T17:03:39.158Z,16.20
2022-11-08T17:06:09.004Z,16.30
2022-11-08T17:08:37.214Z,16.20
2022-11-08T17:11:07.845Z,16.20
2022-11-08T17:13:43.191Z,16.20
2022-11-08T17:16:19.921Z,16.20
2022-11-08T17:18:52.515Z,16.20
2022-11-08T17:21:43.576Z,16.20
2022-11-08T17:24:10.597Z,16.20
2022-11-08T17:26:40.406Z,16.20
2022-11-08T17:29:09.038Z,16.10
2022-11-08T17:31:37.241Z,16.10
2022-11-08T17:34:05.834Z,16.10
2022-11-08T17:36:34.873Z,16.20
2022-11-08T17:39:06.066Z,16.20
2022-11-08T17:41:35.069Z,16.20
2022-11-08T17:44:05.076Z,16.20
2022-11-08T17:46:33.452Z,16.10
2022-11-08T17:49:05.780Z,16.10
2022-11-08T17:51:35.030Z,16.10
2022-11-08T17:54:03.603Z,16.10
2022-11-08T17:56:32.441Z,16.20
2022-11-08T17:59:00.624Z,16.20
2022-11-08T18:01:31.214Z,16.20
2022-11-08T18:04:01.415Z,16.20
2022-11-08T18:06:29.673Z,16.10
2022-11-08T18:08:58.221Z,16.10
2022-11-08T18:11:26.505Z,16.10
2022-11-08T18:13:54.760Z,16.10
2022-11-08T18:16:33.965Z,16.10
2022-11-08T18:19:10.631Z,16.10
2022-11-08T18:21:39.391Z,16.10
2022-11-08T18:24:08.799Z,16.00
2022-11-08T18:26:37.277Z,16.00
2022-11-08T18:29:06.258Z,16.00
2022-11-08T18:31:35.959Z,16.10
2022-11-08T18:34:05.546Z,16.10
2022-11-08T18:36:34.839Z,16.10
2022-11-08T18:39:04.124Z,16.00
2022-11-08T18:41:35.273Z,16.10
2022-11-08T18:44:05.918Z,16.00
2022-11-08T18:46:41.900Z,16.00
2022-11-08T18:49:13.959Z,16.00
2022-11-08T18:51:43.627Z,16.00
2022-11-08T18:54:13.507Z,15.90
2022-11-08T18:56:42.296Z,15.90
2022-11-08T18:59:10.608Z,15.90
2022-11-08T19:01:38.845Z,15.90
2022-11-08T19:04:07.196Z,15.90
2022-11-08T19:06:37.231Z,15.90
2022-11-08T19:09:05.756Z,15.80
2022-11-08T19:11:34.438Z,15.80
2022-11-08T19:14:02.828Z,15.80
2022-11-08T19:16:31.444Z,15.80
2022-11-08T19:18:59.589Z,15.80
2022-11-08T19:21:29.475Z,15.80
2022-11-08T19:24:00.448Z,15.80
2022-11-08T19:26:30.261Z,15.70
2022-11-08T19:28:59.271Z,15.70
2022-11-08T19:31:30.000Z,15.70
2022-11-08T19:33:58.477Z,15.70
2022-11-08T19:36:28.527Z,15.70
2022-11-08T19:38:59.217Z,15.60
2022-11-08T19:41:29.932Z,15.70
2022-11-08T19:43:58.578Z,15.70
2022-11-08T19:46:29.189Z,15.70
2022-11-08T19:49:01.683Z,15.70
2022-11-08T19:51:32.131Z,15.70
2022-11-08T19:54:04.899Z,15.70
2022-11-08T19:57:02.713Z,15.70
2022-11-08T19:59:22.563Z,15.70
2022-11-08T20:01:51.491Z,15.70
2022-11-08T20:04:20.395Z,15.70
2022-11-08T20:06:48.950Z,15.70
2022-11-08T20:09:24.627Z,15.70
2022-11-08T20:11:56.636Z,15.70
2022-11-08T20:14:24.952Z,15.70
2022-11-08T20:16:55.702Z,15.60
2022-11-08T20:19:24.214Z,15.70
2022-11-08T20:21:55.561Z,15.70
2022-11-08T20:24:25.508Z,15.70
2022-11-08T20:26:56.409Z,15.70
2022-11-08T20:29:25.821Z,15.70
2022-11-08T20:31:54.904Z,15.60
2022-11-08T20:34:25.812Z,15.70
2022-11-08T20:36:54.227Z,15.70
2022-11-08T20:39:22.820Z,15.70
2022-11-08T20:41:55.453Z,15.70
2022-11-08T20:44:24.196Z,15.60
2022-11-08T20:46:53.939Z,15.60
2022-11-08T20:49:22.808Z,15.60
2022-11-08T20:51:51.490Z,15.70
2022-11-08T20:54:19.947Z,15.60
2022-11-08T20:56:48.089Z,15.60
2022-11-08T20:59:17.605Z,15.60
2022-11-08T21:01:46.605Z,15.60
2022-11-08T21:04:15.218Z,15.50
2022-11-08T21:06:44.098Z,15.60
2022-11-08T21:09:37.151Z,15.60
2022-11-08T21:12:01.677Z,15.60
2022-11-08T21:14:31.318Z,15.60
2022-11-08T21:17:20.841Z,15.70
2022-11-08T21:19:50.934Z,15.60
2022-11-08T21:22:19.524Z,15.60
2022-11-08T21:24:50.187Z,15.60
2022-11-08T21:27:18.534Z,15.60
2022-11-08T21:29:48.319Z,15.60
2022-11-08T21:32:18.495Z,15.60
2022-11-08T21:34:47.280Z,15.60
2022-11-08T21:37:15.834Z,15.60
2022-11-08T21:39:44.515Z,15.60
2022-11-08T21:42:14.046Z,15.60
2022-11-08T21:44:43.074Z,15.60
2022-11-08T21:47:13.031Z,15.60
2022-11-08T21:49:41.357Z,15.60
2022-11-08T21:52:11.369Z,15.50
2022-11-08T21:54:41.115Z,15.50
2022-11-08T21:57:09.636Z,15.50
2022-11-08T21:59:38.132Z,15.60
2022-11-08T22:02:07.213Z,15.50
2022-11-08T22:04:37.479Z,15.40
2022-11-08T22:07:06.145Z,15.40
2022-11-08T22:09:34.751Z,15.40
2022-11-08T22:12:03.527Z,15.40
2022-11-08T22:14:32.854Z,15.40
2022-11-08T22:17:01.438Z,15.40
2022-11-08T22:19:30.132Z,15.40
2022-11-08T22:22:00.549Z,15.40
2022-11-08T22:24:29.853Z,15.40
2022-11-08T22:26:58.314Z,15.40
2022-11-08T22:29:26.690Z,15.40
2022-11-08T22:31:55.359Z,15.40
2022-11-08T22:34:24.206Z,15.40
2022-11-08T22:36:52.340Z,15.40
2022-11-08T22:39:23.888Z,15.30
2022-11-08T22:41:53.900Z,15.30
2022-11-08T22:44:23.328Z,15.30
2022-11-08T22:46:51.881Z,15.30
2022-11-08T22:49:20.338Z,15.20
2022-11-08T22:51:48.601Z,15.20
2022-11-08T22:54:18.473Z,15.20
2022-11-08T22:56:48.319Z,15.20
2022-11-08T22:59:16.679Z,15.20
2022-11-08T23:01:45.316Z,15.20
2022-11-08T23:04:14.338Z,15.20
2022-11-08T23:06:42.568Z,15.20
2022-11-08T23:09:11.067Z,15.20
2022-11-08T23:12:00.399Z,15.20
2022-11-08T23:14:47.364Z,15.20
2022-11-08T23:17:15.511Z,15.20
2022-11-08T23:20:03.560Z,15.10
2022-11-08T23:22:49.547Z,15.10
2022-11-08T23:25:17.790Z,15.20
2022-11-08T23:28:03.532Z,15.20
2022-11-08T23:30:51.039Z,15.20
2022-11-08T23:33:19.336Z,15.10
2022-11-08T23:36:01.889Z,15.20
2022-11-08T23:38:30.457Z,15.20
2022-11-08T23:41:18.513Z,15.10
2022-11-08T23:44:04.001Z,15.10
2022-11-08T23:46:33.837Z,15.10
2022-11-08T23:49:02.938Z,15.10
2022-11-08T23:51:31.539Z,15.10
2022-11-08T23:53:59.864Z,15.10
2022-11-08T23:56:29.752Z,15.10
2022-11-08T23:59:00.506Z,15.10
